sensor_id;sensor_type;location;lat;lon;timestamp;pressure;altitude;pressure_sealevel;temperature;humidity
75886;BME280;64561;44.018;10.144;2022-12-07T00:01:13;101210.84;;;11.09;91.91
75886;BME280;64561;44.018;10.144;2022-12-07T00:03:42;101204.09;;;11.12;91.73
75886;BME280;64561;44.018;10.144;2022-12-07T00:06:10;101204.88;;;11.10;91.75
75886;BME280;64561;44.018;10.144;2022-12-07T00:08:38;101199.91;;;11.14;91.65
75886;BME280;64561;44.018;10.144;2022-12-07T00:11:10;101198.25;;;11.16;91.59
75886;BME280;64561;44.018;10.144;2022-12-07T00:13:39;101197.41;;;11.17;92.02
75886;BME280;64561;44.018;10.144;2022-12-07T00:16:13;101197.44;;;11.19;91.56
75886;BME280;64561;44.018;10.144;2022-12-07T00:18:43;101192.38;;;11.20;91.46
75886;BME280;64561;44.018;10.144;2022-12-07T00:21:28;101187.25;;;11.20;91.55
75886;BME280;64561;44.018;10.144;2022-12-07T00:23:55;101182.06;;;11.17;91.22
75886;BME280;64561;44.018;10.144;2022-12-07T00:26:37;101177.59;;;11.10;91.42
75886;BME280;64561;44.018;10.144;2022-12-07T00:29:09;101183.44;;;11.06;91.48
75886;BME280;64561;44.018;10.144;2022-12-07T00:31:38;101182.50;;;11.03;91.91
75886;BME280;64561;44.018;10.144;2022-12-07T00:34:07;101184.97;;;10.99;91.88
75886;BME280;64561;44.018;10.144;2022-12-07T00:36:37;101177.91;;;10.91;92.37
75886;BME280;64561;44.018;10.144;2022-12-07T00:39:04;101172.84;;;10.92;92.40
75886;BME280;64561;44.018;10.144;2022-12-07T00:41:31;101174.66;;;10.96;92.05
75886;BME280;64561;44.018;10.144;2022-12-07T00:43:58;101172.84;;;10.92;92.13
75886;BME280;64561;44.018;10.144;2022-12-07T00:46:25;101168.78;;;11.01;91.88
75886;BME280;64561;44.018;10.144;2022-12-07T00:48:53;101165.25;;;10.97;91.43
75886;BME280;64561;44.018;10.144;2022-12-07T00:51:22;101165.25;;;10.95;91.73
75886;BME280;64561;44.018;10.144;2022-12-07T00:53:50;101168.66;;;10.96;91.86
75886;BME280;64561;44.018;10.144;2022-12-07T00:56:22;101172.69;;;10.88;92.53
75886;BME280;64561;44.018;10.144;2022-12-07T00:58:56;101167.38;;;10.80;92.81
75886;BME280;64561;44.018;10.144;2022-12-07T01:01:26;101163.06;;;10.79;92.70
75886;BME280;64561;44.018;10.144;2022-12-07T01:03:53;101169.13;;;10.83;92.14
75886;BME280;64561;44.018;10.144;2022-12-07T01:06:22;101160.72;;;10.87;92.00
75886;BME280;64561;44.018;10.144;2022-12-07T01:08:49;101163.19;;;10.84;91.99
75886;BME280;64561;44.018;10.144;2022-12-07T01:11:19;101171.66;;;10.81;91.26
75886;BME280;64561;44.018;10.144;2022-12-07T01:13:49;101164.72;;;10.77;91.74
75886;BME280;64561;44.018;10.144;2022-12-07T01:16:17;101158.84;;;10.81;91.71
75886;BME280;64561;44.018;10.144;2022-12-07T01:18:46;101157.31;;;10.86;91.15
75886;BME280;64561;44.018;10.144;2022-12-07T01:21:19;101162.28;;;10.82;90.99
75886;BME280;64561;44.018;10.144;2022-12-07T01:23:47;101167.28;;;10.77;91.67
75886;BME280;64561;44.018;10.144;2022-12-07T01:26:18;101156.56;;;10.60;92.00
75886;BME280;64561;44.018;10.144;2022-12-07T01:28:45;101158.09;;;10.55;92.76
75886;BME280;64561;44.018;10.144;2022-12-07T01:31:14;101160.91;;;10.63;92.87
75886;BME280;64561;44.018;10.144;2022-12-07T01:33:44;101164.63;;;10.74;92.13
75886;BME280;64561;44.018;10.144;2022-12-07T01:36:28;101164.44;;;10.68;91.73
75886;BME280;64561;44.018;10.144;2022-12-07T01:38:59;101162.72;;;10.67;91.88
75886;BME280;64561;44.018;10.144;2022-12-07T01:41:29;101166.91;;;10.65;92.12
75886;BME280;64561;44.018;10.144;2022-12-07T01:44:16;101165.25;;;10.67;92.30
75886;BME280;64561;44.018;10.144;2022-12-07T01:46:51;101152.44;;;10.65;92.02
75886;BME280;64561;44.018;10.144;2022-12-07T01:49:21;101158.50;;;10.69;91.55
75886;BME280;64561;44.018;10.144;2022-12-07T01:51:49;101155.19;;;10.73;91.67
75886;BME280;64561;44.018;10.144;2022-12-07T01:54:17;101152.03;;;10.82;91.53
75886;BME280;64561;44.018;10.144;2022-12-07T01:56:50;101152.00;;;10.80;91.26
75886;BME280;64561;44.018;10.144;2022-12-07T01:59:20;101145.13;;;10.78;91.13
75886;BME280;64561;44.018;10.144;2022-12-07T02:01:48;101151.03;;;10.76;91.28
75886;BME280;64561;44.018;10.144;2022-12-07T02:04:15;101143.34;;;10.76;90.99
75886;BME280;64561;44.018;10.144;2022-12-07T02:06:42;101139.22;;;10.80;90.81
75886;BME280;64561;44.018;10.144;2022-12-07T02:09:11;101136.59;;;10.79;90.76
75886;BME280;64561;44.018;10.144;2022-12-07T02:11:39;101137.28;;;10.73;90.12
75886;BME280;64561;44.018;10.144;2022-12-07T02:14:07;101132.09;;;10.70;90.58
75886;BME280;64561;44.018;10.144;2022-12-07T02:22:00;101129.50;;;10.68;90.77
75886;BME280;64561;44.018;10.144;2022-12-07T02:32:13;101128.75;;;10.72;91.24
75886;BME280;64561;44.018;10.144;2022-12-07T02:34:49;101125.31;;;10.72;90.94
75886;BME280;64561;44.018;10.144;2022-12-07T02:40:16;101120.31;;;10.76;90.60
75886;BME280;64561;44.018;10.144;2022-12-07T02:42:53;101123.47;;;10.68;89.84
75886;BME280;64561;44.018;10.144;2022-12-07T02:45:24;101127.56;;;10.61;90.82
75886;BME280;64561;44.018;10.144;2022-12-07T02:47:56;101126.69;;;10.59;90.91
75886;BME280;64561;44.018;10.144;2022-12-07T02:50:26;101124.84;;;10.55;90.95
75886;BME280;64561;44.018;10.144;2022-12-07T02:52:53;101121.31;;;10.51;91.00
75886;BME280;64561;44.018;10.144;2022-12-07T02:55:25;101120.56;;;10.54;91.25
75886;BME280;64561;44.018;10.144;2022-12-07T02:58:30;101123.06;;;10.52;91.57
75886;BME280;64561;44.018;10.144;2022-12-07T03:03:48;101125.06;;;10.63;91.29
75886;BME280;64561;44.018;10.144;2022-12-07T03:06:31;101120.75;;;10.62;91.23
75886;BME280;64561;44.018;10.144;2022-12-07T03:12:17;101123.13;;;10.56;91.74
75886;BME280;64561;44.018;10.144;2022-12-07T03:15:07;101125.97;;;10.65;91.43
75886;BME280;64561;44.018;10.144;2022-12-07T03:17:39;101124.72;;;10.81;90.86
75886;BME280;64561;44.018;10.144;2022-12-07T03:20:07;101127.09;;;10.74;90.54
75886;BME280;64561;44.018;10.144;2022-12-07T03:22:37;101126.44;;;10.51;91.14
75886;BME280;64561;44.018;10.144;2022-12-07T03:25:08;101120.13;;;10.39;92.33
75886;BME280;64561;44.018;10.144;2022-12-07T03:27:48;101121.16;;;10.45;92.11
75886;BME280;64561;44.018;10.144;2022-12-07T03:30:22;101115.16;;;10.45;91.85
75886;BME280;64561;44.018;10.144;2022-12-07T03:33:03;101112.28;;;10.34;92.70
75886;BME280;64561;44.018;10.144;2022-12-07T03:35:40;101109.03;;;10.40;92.35
75886;BME280;64561;44.018;10.144;2022-12-07T03:38:18;101110.91;;;10.45;92.22
75886;BME280;64561;44.018;10.144;2022-12-07T03:40:54;101109.47;;;10.53;92.17
75886;BME280;64561;44.018;10.144;2022-12-07T03:43:27;101103.47;;;10.53;91.66
75886;BME280;64561;44.018;10.144;2022-12-07T03:46:22;101103.56;;;10.56;91.51
75886;BME280;64561;44.018;10.144;2022-12-07T03:54:47;101102.22;;;10.40;93.12
75886;BME280;64561;44.018;10.144;2022-12-07T03:57:15;101098.97;;;10.44;92.97
75886;BME280;64561;44.018;10.144;2022-12-07T03:59:43;101089.75;;;10.51;92.65
75886;BME280;64561;44.018;10.144;2022-12-07T04:02:12;101087.31;;;10.56;92.08
75886;BME280;64561;44.018;10.144;2022-12-07T04:04:39;101091.81;;;10.63;92.15
75886;BME280;64561;44.018;10.144;2022-12-07T04:07:06;101087.47;;;10.62;91.84
75886;BME280;64561;44.018;10.144;2022-12-07T04:09:33;101085.00;;;10.65;91.73
75886;BME280;64561;44.018;10.144;2022-12-07T04:12:00;101080.72;;;10.64;91.38
75886;BME280;64561;44.018;10.144;2022-12-07T04:14:27;101091.81;;;10.63;90.60
75886;BME280;64561;44.018;10.144;2022-12-07T04:16:57;101087.41;;;10.59;90.69
75886;BME280;64561;44.018;10.144;2022-12-07T04:19:29;101090.69;;;10.53;89.92
75886;BME280;64561;44.018;10.144;2022-12-07T04:21:58;101082.53;;;10.38;89.55
75886;BME280;64561;44.018;10.144;2022-12-07T04:24:25;101081.69;;;10.37;90.10
75886;BME280;64561;44.018;10.144;2022-12-07T04:26:52;101086.00;;;10.38;89.58
75886;BME280;64561;44.018;10.144;2022-12-07T04:29:19;101089.31;;;10.36;89.50
75886;BME280;64561;44.018;10.144;2022-12-07T04:31:47;101085.28;;;10.15;89.89
75886;BME280;64561;44.018;10.144;2022-12-07T04:34:14;101088.44;;;10.06;90.85
75886;BME280;64561;44.018;10.144;2022-12-07T04:36:42;101088.50;;;10.08;90.82
75886;BME280;64561;44.018;10.144;2022-12-07T04:39:18;101090.31;;;10.12;90.49
75886;BME280;64561;44.018;10.144;2022-12-07T04:41:45;101087.09;;;10.19;90.83
75886;BME280;64561;44.018;10.144;2022-12-07T04:44:12;101087.38;;;10.27;90.59
75886;BME280;64561;44.018;10.144;2022-12-07T04:46:41;101080.56;;;10.27;90.59
75886;BME280;64561;44.018;10.144;2022-12-07T04:49:09;101079.69;;;10.27;90.76
75886;BME280;64561;44.018;10.144;2022-12-07T04:51:36;101079.69;;;10.27;90.91
75886;BME280;64561;44.018;10.144;2022-12-07T04:54:03;101083.00;;;10.24;91.31
75886;BME280;64561;44.018;10.144;2022-12-07T04:56:31;101080.72;;;10.34;91.32
75886;BME280;64561;44.018;10.144;2022-12-07T04:58:58;101079.34;;;10.45;91.21
75886;BME280;64561;44.018;10.144;2022-12-07T05:01:24;101075.94;;;10.44;91.17
75886;BME280;64561;44.018;10.144;2022-12-07T05:03:51;101081.13;;;10.47;91.29
75886;BME280;64561;44.018;10.144;2022-12-07T05:06:18;101079.34;;;10.45;90.70
75886;BME280;64561;44.018;10.144;2022-12-07T05:08:45;101078.22;;;10.35;91.20
75886;BME280;64561;44.018;10.144;2022-12-07T05:11:13;101081.69;;;10.37;91.35
75886;BME280;64561;44.018;10.144;2022-12-07T05:14:02;101083.25;;;10.32;91.35
75886;BME280;64561;44.018;10.144;2022-12-07T05:16:29;101073.91;;;10.34;91.24
75886;BME280;64561;44.018;10.144;2022-12-07T05:18:56;101079.72;;;10.28;91.15
75886;BME280;64561;44.018;10.144;2022-12-07T05:21:23;101086.53;;;10.28;91.41
75886;BME280;64561;44.018;10.144;2022-12-07T05:23:50;101073.75;;;10.28;91.29
75886;BME280;64561;44.018;10.144;2022-12-07T05:26:17;101080.69;;;10.32;91.32
75886;BME280;64561;44.018;10.144;2022-12-07T05:28:44;101072.53;;;10.17;91.32
75886;BME280;64561;44.018;10.144;2022-12-07T05:31:11;101073.50;;;10.20;91.68
75886;BME280;64561;44.018;10.144;2022-12-07T05:33:37;101075.38;;;10.26;91.38
75886;BME280;64561;44.018;10.144;2022-12-07T05:36:04;101077.03;;;10.25;91.11
75886;BME280;64561;44.018;10.144;2022-12-07T05:38:33;101073.59;;;10.23;90.84
75886;BME280;64561;44.018;10.144;2022-12-07T05:41:02;101068.47;;;10.23;91.08
75886;BME280;64561;44.018;10.144;2022-12-07T05:43:29;101073.63;;;10.25;90.73
75886;BME280;64561;44.018;10.144;2022-12-07T05:45:56;101071.44;;;10.08;90.12
75886;BME280;64561;44.018;10.144;2022-12-07T05:48:24;101078.84;;;9.99;91.51
75886;BME280;64561;44.018;10.144;2022-12-07T05:50:51;101079.44;;;9.91;91.90
75886;BME280;64561;44.018;10.144;2022-12-07T05:53:18;101079.19;;;9.83;92.04
75886;BME280;64561;44.018;10.144;2022-12-07T05:55:49;101075.56;;;9.76;92.45
75886;BME280;64561;44.018;10.144;2022-12-07T05:58:15;101083.22;;;9.75;92.57
75886;BME280;64561;44.018;10.144;2022-12-07T06:01:01;101077.91;;;9.69;92.36
75886;BME280;64561;44.018;10.144;2022-12-07T06:03:28;101085.31;;;9.61;91.83
75886;BME280;64561;44.018;10.144;2022-12-07T06:05:55;101084.34;;;9.57;91.54
75886;BME280;64561;44.018;10.144;2022-12-07T06:08:21;101089.28;;;9.51;91.64
75886;BME280;64561;44.018;10.144;2022-12-07T06:10:48;101090.97;;;9.51;91.87
75886;BME280;64561;44.018;10.144;2022-12-07T06:13:35;101089.28;;;9.51;92.19
75886;BME280;64561;44.018;10.144;2022-12-07T06:16:02;101099.63;;;9.56;91.47
75886;BME280;64561;44.018;10.144;2022-12-07T06:18:29;101093.00;;;9.62;90.75
75886;BME280;64561;44.018;10.144;2022-12-07T06:20:55;101091.47;;;9.68;90.37
75886;BME280;64561;44.018;10.144;2022-12-07T06:23:25;101099.81;;;9.62;89.13
75886;BME280;64561;44.018;10.144;2022-12-07T06:25:52;101096.00;;;9.49;89.66
75886;BME280;64561;44.018;10.144;2022-12-07T06:28:19;101099.03;;;9.37;89.85
75886;BME280;64561;44.018;10.144;2022-12-07T06:30:45;101104.00;;;9.33;90.73
75886;BME280;64561;44.018;10.144;2022-12-07T06:33:12;101102.75;;;9.22;90.46
75886;BME280;64561;44.018;10.144;2022-12-07T06:35:39;101106.06;;;9.19;90.93
75886;BME280;64561;44.018;10.144;2022-12-07T06:38:06;101108.34;;;9.11;90.40
75886;BME280;64561;44.018;10.144;2022-12-07T06:40:32;101103.34;;;9.14;91.13
75886;BME280;64561;44.018;10.144;2022-12-07T06:42:59;101107.88;;;9.22;90.28
75886;BME280;64561;44.018;10.144;2022-12-07T06:45:26;101106.53;;;9.33;90.30
75886;BME280;64561;44.018;10.144;2022-12-07T06:47:53;101111.06;;;9.42;89.97
75886;BME280;64561;44.018;10.144;2022-12-07T06:50:20;101116.13;;;9.40;89.22
75886;BME280;64561;44.018;10.144;2022-12-07T06:52:46;101105.00;;;9.38;88.91
75886;BME280;64561;44.018;10.144;2022-12-07T06:55:14;101106.78;;;9.41;89.22
75886;BME280;64561;44.018;10.144;2022-12-07T06:57:41;101117.72;;;9.36;88.35
75886;BME280;64561;44.018;10.144;2022-12-07T07:00:09;101111.34;;;9.24;88.43
75886;BME280;64561;44.018;10.144;2022-12-07T07:02:36;101129.81;;;9.16;88.96
75886;BME280;64561;44.018;10.144;2022-12-07T07:05:03;101131.31;;;9.11;89.56
75886;BME280;64561;44.018;10.144;2022-12-07T07:07:30;101128.56;;;9.05;90.63
75886;BME280;64561;44.018;10.144;2022-12-07T07:10:04;101123.91;;;8.93;89.84
75886;BME280;64561;44.018;10.144;2022-12-07T07:12:30;101137.53;;;8.94;90.75
75886;BME280;64561;44.018;10.144;2022-12-07T07:14:57;101137.66;;;8.97;91.47
75886;BME280;64561;44.018;10.144;2022-12-07T07:17:24;101138.66;;;9.02;91.61
75886;BME280;64561;44.018;10.144;2022-12-07T07:19:51;101132.97;;;9.09;90.87
75886;BME280;64561;44.018;10.144;2022-12-07T07:22:17;101135.09;;;9.21;90.74
75886;BME280;64561;44.018;10.144;2022-12-07T07:24:45;101132.94;;;9.33;90.71
75886;BME280;64561;44.018;10.144;2022-12-07T07:27:12;101130.59;;;9.39;90.12
75886;BME280;64561;44.018;10.144;2022-12-07T07:29:38;101133.16;;;9.39;90.52
75886;BME280;64561;44.018;10.144;2022-12-07T07:32:05;101133.25;;;9.43;89.82
75886;BME280;64561;44.018;10.144;2022-12-07T07:34:33;101136.78;;;9.46;89.62
75886;BME280;64561;44.018;10.144;2022-12-07T07:37:00;101138.50;;;9.47;89.45
75886;BME280;64561;44.018;10.144;2022-12-07T07:39:27;101137.06;;;9.55;89.91
75886;BME280;64561;44.018;10.144;2022-12-07T07:41:53;101142.19;;;9.55;89.55
75886;BME280;64561;44.018;10.144;2022-12-07T07:44:24;101144.63;;;9.52;89.63
75886;BME280;64561;44.018;10.144;2022-12-07T07:46:58;101143.16;;;9.59;89.68
75886;BME280;64561;44.018;10.144;2022-12-07T07:49:25;101150.13;;;9.63;89.86
75886;BME280;64561;44.018;10.144;2022-12-07T07:51:52;101147.59;;;9.65;89.86
75886;BME280;64561;44.018;10.144;2022-12-07T07:54:19;101141.72;;;9.67;89.96
75886;BME280;64561;44.018;10.144;2022-12-07T07:56:46;101151.06;;;9.67;90.95
75886;BME280;64561;44.018;10.144;2022-12-07T07:59:14;101152.88;;;9.69;90.58
75886;BME280;64561;44.018;10.144;2022-12-07T08:01:41;101162.34;;;9.73;91.12
75886;BME280;64561;44.018;10.144;2022-12-07T08:04:08;101158.22;;;9.77;91.21
75886;BME280;64561;44.018;10.144;2022-12-07T08:06:34;101164.28;;;9.80;91.47
75886;BME280;64561;44.018;10.144;2022-12-07T08:09:02;101158.56;;;9.88;91.41
75886;BME280;64561;44.018;10.144;2022-12-07T08:11:30;101163.81;;;9.92;92.05
75886;BME280;64561;44.018;10.144;2022-12-07T08:13:56;101163.41;;;10.05;91.55
75886;BME280;64561;44.018;10.144;2022-12-07T08:16:23;101154.91;;;10.06;91.26
75886;BME280;64561;44.018;10.144;2022-12-07T08:18:50;101161.91;;;10.12;91.25
75886;BME280;64561;44.018;10.144;2022-12-07T08:21:17;101159.53;;;10.18;90.99
75886;BME280;64561;44.018;10.144;2022-12-07T08:23:43;101160.47;;;10.22;91.02
75886;BME280;64561;44.018;10.144;2022-12-07T08:26:13;101162.41;;;10.27;90.65
75886;BME280;64561;44.018;10.144;2022-12-07T08:28:41;101155.75;;;10.33;90.85
75886;BME280;64561;44.018;10.144;2022-12-07T08:31:14;101154.13;;;10.36;90.89
75886;BME280;64561;44.018;10.144;2022-12-07T08:33:42;101155.91;;;10.39;90.54
75886;BME280;64561;44.018;10.144;2022-12-07T08:36:10;101156.88;;;10.42;90.90
75886;BME280;64561;44.018;10.144;2022-12-07T08:38:39;101159.63;;;10.48;91.06
75886;BME280;64561;44.018;10.144;2022-12-07T08:41:17;101154.56;;;10.50;90.51
75886;BME280;64561;44.018;10.144;2022-12-07T08:43:44;101159.84;;;10.56;90.71
75886;BME280;64561;44.018;10.144;2022-12-07T08:48:54;101159.13;;;10.62;90.14
75886;BME280;64561;44.018;10.144;2022-12-07T08:51:23;101159.53;;;10.75;89.79
75886;BME280;64561;44.018;10.144;2022-12-07T08:53:51;101165.00;;;10.88;88.83
75886;BME280;64561;44.018;10.144;2022-12-07T08:56:19;101164.47;;;10.99;88.17
75886;BME280;64561;44.018;10.144;2022-12-07T08:58:46;101158.66;;;11.05;88.00
75886;BME280;64561;44.018;10.144;2022-12-07T09:01:14;101164.88;;;11.13;88.18
75886;BME280;64561;44.018;10.144;2022-12-07T09:03:43;101167.53;;;11.18;86.95
75886;BME280;64561;44.018;10.144;2022-12-07T09:06:10;101164.88;;;11.13;85.17
75886;BME280;64561;44.018;10.144;2022-12-07T09:08:40;101172.56;;;11.13;85.43
75886;BME280;64561;44.018;10.144;2022-12-07T09:11:08;101176.25;;;11.25;86.19
75886;BME280;64561;44.018;10.144;2022-12-07T09:13:35;101180.69;;;11.30;85.38
75886;BME280;64561;44.018;10.144;2022-12-07T09:16:04;101177.41;;;11.36;85.88
75886;BME280;64561;44.018;10.144;2022-12-07T09:18:31;101177.47;;;11.37;85.06
75886;BME280;64561;44.018;10.144;2022-12-07T09:20:58;101178.34;;;11.39;84.77
75886;BME280;64561;44.018;10.144;2022-12-07T09:23:25;101170.19;;;11.54;83.43
75886;BME280;64561;44.018;10.144;2022-12-07T09:25:52;101176.41;;;11.64;82.88
75886;BME280;64561;44.018;10.144;2022-12-07T09:28:19;101175.19;;;11.83;80.39
75886;BME280;64561;44.018;10.144;2022-12-07T09:30:46;101172.19;;;11.99;77.26
75886;BME280;64561;44.018;10.144;2022-12-07T09:33:34;101171.41;;;12.03;77.67
75886;BME280;64561;44.018;10.144;2022-12-07T09:36:00;101173.03;;;11.98;76.96
75886;BME280;64561;44.018;10.144;2022-12-07T09:38:29;101178.72;;;11.86;73.67
75886;BME280;64561;44.018;10.144;2022-12-07T09:40:56;101173.41;;;11.80;68.87
75886;BME280;64561;44.018;10.144;2022-12-07T09:43:25;101175.91;;;11.77;68.81
75886;BME280;64561;44.018;10.144;2022-12-07T09:45:54;101171.09;;;11.89;71.26
75886;BME280;64561;44.018;10.144;2022-12-07T09:48:30;101169.97;;;12.15;72.28
75886;BME280;64561;44.018;10.144;2022-12-07T09:50:59;101177.09;;;12.26;73.58
75886;BME280;64561;44.018;10.144;2022-12-07T09:53:30;101178.09;;;12.33;74.29
75886;BME280;64561;44.018;10.144;2022-12-07T09:55:57;101177.44;;;12.42;73.23
75886;BME280;64561;44.018;10.144;2022-12-07T09:58:25;101177.06;;;12.64;70.10
75886;BME280;64561;44.018;10.144;2022-12-07T10:01:17;101170.34;;;12.71;69.42
75886;BME280;64561;44.018;10.144;2022-12-07T10:06:36;101170.38;;;12.72;71.20
75886;BME280;64561;44.018;10.144;2022-12-07T10:09:12;101167.13;;;12.79;70.27
75886;BME280;64561;44.018;10.144;2022-12-07T10:14:27;101160.38;;;12.85;70.01
75886;BME280;64561;44.018;10.144;2022-12-07T10:17:37;101158.06;;;12.98;67.49
75886;BME280;64561;44.018;10.144;2022-12-07T10:20:17;101158.22;;;13.06;64.68
75886;BME280;64561;44.018;10.144;2022-12-07T10:23:00;101152.13;;;13.02;64.39
75886;BME280;64561;44.018;10.144;2022-12-07T10:25:30;101149.63;;;13.04;66.57
75886;BME280;64561;44.018;10.144;2022-12-07T10:30:55;101142.00;;;13.09;63.98
75886;BME280;64561;44.018;10.144;2022-12-07T10:36:17;101137.94;;;12.76;64.56
75886;BME280;64561;44.018;10.144;2022-12-07T10:38:57;101134.59;;;12.81;68.34
75886;BME280;64561;44.018;10.144;2022-12-07T10:41:25;101132.13;;;12.85;68.87
75886;BME280;64561;44.018;10.144;2022-12-07T10:43:54;101132.34;;;12.97;66.02
75886;BME280;64561;44.018;10.144;2022-12-07T10:46:27;101125.69;;;13.08;65.81
75886;BME280;64561;44.018;10.144;2022-12-07T11:04:01;101108.16;;;12.86;63.81
75886;BME280;64561;44.018;10.144;2022-12-07T11:27:47;101081.19;;;13.59;62.15
75886;BME280;64561;44.018;10.144;2022-12-07T11:30:28;101083.91;;;13.68;62.93
75886;BME280;64561;44.018;10.144;2022-12-07T11:36:44;101073.34;;;13.50;59.46
75886;BME280;64561;44.018;10.144;2022-12-07T11:39:36;101075.75;;;13.39;61.72
75886;BME280;64561;44.018;10.144;2022-12-07T11:42:11;101075.25;;;13.62;60.59
75886;BME280;64561;44.018;10.144;2022-12-07T11:44:49;101066.72;;;13.64;60.86
75886;BME280;64561;44.018;10.144;2022-12-07T11:47:28;101062.25;;;13.53;61.60
75886;BME280;64561;44.018;10.144;2022-12-07T11:55:57;101053.09;;;13.71;61.86
75886;BME280;64561;44.018;10.144;2022-12-07T12:06:43;101039.78;;;13.39;61.62
75886;BME280;64561;44.018;10.144;2022-12-07T12:09:21;101040.63;;;13.40;62.74
75886;BME280;64561;44.018;10.144;2022-12-07T12:15:57;101042.06;;;13.79;60.24
75886;BME280;64561;44.018;10.144;2022-12-07T12:21:28;101035.47;;;13.96;61.18
75886;BME280;64561;44.018;10.144;2022-12-07T12:24:09;101030.28;;;13.94;59.78
75886;BME280;64561;44.018;10.144;2022-12-07T12:26:49;101025.94;;;13.92;61.23
75886;BME280;64561;44.018;10.144;2022-12-07T12:29:30;101025.13;;;13.94;61.45
75886;BME280;64561;44.018;10.144;2022-12-07T12:35:22;101021.69;;;13.95;59.88
75886;BME280;64561;44.018;10.144;2022-12-07T12:37:54;101021.69;;;13.94;59.82
75886;BME280;64561;44.018;10.144;2022-12-07T12:45:32;101015.22;;;14.24;61.04
75886;BME280;64561;44.018;10.144;2022-12-07T12:47:59;101011.81;;;14.28;59.48
75886;BME280;64561;44.018;10.144;2022-12-07T12:50:33;101004.06;;;14.25;57.99
75886;BME280;64561;44.018;10.144;2022-12-07T13:00:46;100999.59;;;14.10;60.29
75886;BME280;64561;44.018;10.144;2022-12-07T13:03:30;100994.41;;;14.05;58.98
75886;BME280;64561;44.018;10.144;2022-12-07T13:08:58;100996.16;;;14.09;59.81
75886;BME280;64561;44.018;10.144;2022-12-07T13:11:34;100999.59;;;14.10;59.06
75886;BME280;64561;44.018;10.144;2022-12-07T13:17:03;100997.00;;;14.10;59.70
75886;BME280;64561;44.018;10.144;2022-12-07T13:28:00;100989.41;;;14.17;60.86
75886;BME280;64561;44.018;10.144;2022-12-07T13:30:29;100984.31;;;14.25;59.72
75886;BME280;64561;44.018;10.144;2022-12-07T13:32:58;100985.19;;;14.24;59.24
75886;BME280;64561;44.018;10.144;2022-12-07T13:35:36;100980.78;;;14.15;59.48
75886;BME280;64561;44.018;10.144;2022-12-07T13:38:13;100984.16;;;14.08;60.64
75886;BME280;64561;44.018;10.144;2022-12-07T13:40:41;100990.16;;;14.10;61.67
75886;BME280;64561;44.018;10.144;2022-12-07T13:43:15;100996.16;;;14.11;60.40
75886;BME280;64561;44.018;10.144;2022-12-07T13:45:43;100990.22;;;14.16;60.15
75886;BME280;64561;44.018;10.144;2022-12-07T13:48:30;100992.88;;;14.21;59.53
75886;BME280;64561;44.018;10.144;2022-12-07T13:51:00;100980.81;;;14.17;60.00
75886;BME280;64561;44.018;10.144;2022-12-07T13:53:28;100973.97;;;14.19;60.47
75886;BME280;64561;44.018;10.144;2022-12-07T13:55:58;100973.13;;;14.20;59.06
75886;BME280;64561;44.018;10.144;2022-12-07T13:58:30;100983.28;;;14.11;60.23
75886;BME280;64561;44.018;10.144;2022-12-07T14:00:58;100974.53;;;13.95;59.15
75886;BME280;64561;44.018;10.144;2022-12-07T14:03:43;100975.31;;;13.88;60.06
75886;BME280;64561;44.018;10.144;2022-12-07T14:06:25;100968.34;;;13.81;60.64
75886;BME280;64561;44.018;10.144;2022-12-07T14:09:14;100975.28;;;13.86;59.45
75886;BME280;64561;44.018;10.144;2022-12-07T14:11:44;100972.84;;;13.97;60.08
75886;BME280;64561;44.018;10.144;2022-12-07T14:14:16;100970.28;;;13.97;60.23
75886;BME280;64561;44.018;10.144;2022-12-07T14:19:57;100964.94;;;13.83;61.11
75886;BME280;64561;44.018;10.144;2022-12-07T14:25:09;100969.19;;;13.80;61.92
75886;BME280;64561;44.018;10.144;2022-12-07T14:27:38;100970.91;;;13.81;61.60
75886;BME280;64561;44.018;10.144;2022-12-07T14:30:06;100970.00;;;13.76;62.07
75886;BME280;64561;44.018;10.144;2022-12-07T14:32:36;100974.09;;;13.61;62.84
75886;BME280;64561;44.018;10.144;2022-12-07T14:35:13;100975.63;;;13.48;62.34
75886;BME280;64561;44.018;10.144;2022-12-07T14:37:41;100967.84;;;13.44;63.02
75886;BME280;64561;44.018;10.144;2022-12-07T14:40:13;100977.34;;;13.48;62.29
75886;BME280;64561;44.018;10.144;2022-12-07T14:42:42;100973.94;;;13.49;62.81
75886;BME280;64561;44.018;10.144;2022-12-07T14:45:21;100980.78;;;13.48;63.34
75886;BME280;64561;44.018;10.144;2022-12-07T14:47:49;100978.91;;;13.37;64.01
75886;BME280;64561;44.018;10.144;2022-12-07T14:50:44;100981.13;;;13.17;65.04
75886;BME280;64561;44.018;10.144;2022-12-07T14:53:41;100981.09;;;13.15;65.06
75886;BME280;64561;44.018;10.144;2022-12-07T14:56:09;100976.69;;;13.08;65.81
75886;BME280;64561;44.018;10.144;2022-12-07T14:58:36;100974.13;;;13.08;67.63
75886;BME280;64561;44.018;10.144;2022-12-07T15:01:03;100979.16;;;13.02;67.70
75886;BME280;64561;44.018;10.144;2022-12-07T15:03:30;100981.63;;;12.94;69.81
75886;BME280;64561;44.018;10.144;2022-12-07T15:05:57;100984.84;;;12.84;70.44
75886;BME280;64561;44.018;10.144;2022-12-07T15:08:24;100988.97;;;12.73;70.99
75886;BME280;64561;44.018;10.144;2022-12-07T15:10:51;100989.63;;;12.63;71.59
75886;BME280;64561;44.018;10.144;2022-12-07T15:13:18;101000.56;;;12.52;71.85
75886;BME280;64561;44.018;10.144;2022-12-07T15:16:05;100984.84;;;12.35;71.55
75886;BME280;64561;44.018;10.144;2022-12-07T15:18:34;100987.28;;;12.29;72.40
75886;BME280;64561;44.018;10.144;2022-12-07T15:21:01;100988.88;;;12.23;73.28